Aviation Digital Data Service (ADDS)

Output produced by METARs form (0950 UTC 07 December 2022)
found at http://aviationweather.gov/metar/data/
 
KBWI 070908Z 0709/0812 13003KT 2SM BR OVC003 
     FM071400 16003KT 3SM -SHRA BR OVC004 
     FM071700 21004KT P6SM OVC008 
     FM072000 21003KT P6SM OVC010 
     FM072300 00000KT P6SM OVC008 
     FM080500 33003KT P6SM BKN025 
     FM080800 34004KT P6SM BKN050
       
KSBY 070559Z 0706/0806 18004KT P6SM -RA OVC012 
     TEMPO 0706/0708 BKN008 
     FM070900 21004KT 5SM -RA BR OVC006 
     FM071300 20005KT 5SM BR VCSH OVC006 
     FM071500 23006KT P6SM OVC010 
     FM080300 28003KT P6SM OVC008